createdAt,value
2019-03-24T00:01:27.349Z,5.33
2019-03-24T00:03:57.564Z,5.67
2019-03-24T00:06:27.786Z,5.60
2019-03-24T00:08:58.042Z,4.80
2019-03-24T00:11:28.431Z,6.97
2019-03-24T00:13:58.763Z,4.07
2019-03-24T00:16:29.477Z,5.37
2019-03-24T00:18:59.652Z,4.50
2019-03-24T00:21:29.873Z,3.63
2019-03-24T00:24:00.538Z,5.47
2019-03-24T00:26:30.805Z,3.33
2019-03-24T00:29:01.201Z,3.63
2019-03-24T00:31:32.083Z,4.33
2019-03-24T00:34:02.473Z,4.93
2019-03-24T00:36:33.948Z,7.13
2019-03-24T00:39:05.492Z,5.03
2019-03-24T00:41:35.628Z,2.20
2019-03-24T00:44:05.894Z,3.57
2019-03-24T00:46:36.263Z,3.90
2019-03-24T00:49:06.506Z,6.07
2019-03-24T00:51:36.662Z,5.77
2019-03-24T00:54:06.999Z,4.97
2019-03-24T00:56:37.093Z,3.67
2019-03-24T00:59:07.180Z,5.23
2019-03-24T01:01:37.310Z,7.93
2019-03-24T01:04:07.399Z,2.70
2019-03-24T01:06:37.992Z,4.73
2019-03-24T01:09:09.170Z,2.90
2019-03-24T01:11:39.851Z,4.07
2019-03-24T01:14:10.023Z,3.67
2019-03-24T01:16:40.176Z,3.10
2019-03-24T01:19:10.356Z,6.73
2019-03-24T01:21:40.534Z,4.17
2019-03-24T01:24:10.587Z,3.77
2019-03-24T01:26:41.047Z,3.97
2019-03-24T01:29:11.117Z,6.70
2019-03-24T01:31:41.306Z,3.63
2019-03-24T01:34:11.437Z,2.93
2019-03-24T01:36:41.633Z,4.80
2019-03-24T01:39:12.059Z,7.33
2019-03-24T01:41:42.230Z,3.13
2019-03-24T01:44:12.356Z,6.30
2019-03-24T01:46:42.526Z,4.07
2019-03-24T01:49:12.688Z,3.50
2019-03-24T01:51:42.903Z,3.53
2019-03-24T01:54:13.413Z,3.23
2019-03-24T01:56:43.495Z,4.77
2019-03-24T01:59:13.576Z,4.80
2019-03-24T02:01:43.766Z,4.20
2019-03-24T02:04:14.273Z,3.43
2019-03-24T02:06:44.434Z,3.63
2019-03-24T02:09:14.639Z,3.97
2019-03-24T02:11:44.849Z,4.53
2019-03-24T02:14:15.163Z,7.50
2019-03-24T02:16:45.309Z,3.80
2019-03-24T02:19:15.475Z,5.40
2019-03-24T02:21:45.649Z,4.03
2019-03-24T02:24:15.814Z,5.27
2019-03-24T02:26:45.951Z,5.30
2019-03-24T02:29:16.105Z,3.07
2019-03-24T02:31:46.329Z,4.67
2019-03-24T02:34:16.460Z,5.67
2019-03-24T02:36:46.743Z,3.77
2019-03-24T02:39:17.198Z,5.97
2019-03-24T02:41:47.247Z,3.60
2019-03-24T02:44:17.599Z,4.80
2019-03-24T02:46:47.687Z,3.03
2019-03-24T02:49:17.848Z,4.20
2019-03-24T02:51:47.968Z,3.90
2019-03-24T02:54:18.128Z,4.57
2019-03-24T02:56:48.607Z,5.70
2019-03-24T02:59:18.662Z,4.30
2019-03-24T03:01:48.826Z,4.63
2019-03-24T03:04:18.953Z,2.73
2019-03-24T03:06:49.171Z,3.43
2019-03-24T03:09:19.351Z,4.77
2019-03-24T03:11:49.427Z,5.90
2019-03-24T03:14:19.584Z,3.80
2019-03-24T03:16:49.717Z,3.30
2019-03-24T03:19:19.790Z,3.17
2019-03-24T03:21:49.998Z,5.13
2019-03-24T03:24:20.152Z,4.17
2019-03-24T03:26:50.212Z,3.70
2019-03-24T03:29:20.376Z,6.03
2019-03-24T03:31:50.473Z,2.37
2019-03-24T03:34:20.705Z,4.37
2019-03-24T03:36:50.799Z,2.60
2019-03-24T03:39:20.859Z,3.40
2019-03-24T03:41:51.261Z,5.07
2019-03-24T03:44:21.423Z,4.67
2019-03-24T03:46:53.177Z,3.13
2019-03-24T03:49:23.559Z,3.43
2019-03-24T03:51:53.648Z,3.43
2019-03-24T03:54:24.066Z,3.00
2019-03-24T03:56:54.248Z,3.50
2019-03-24T03:59:24.353Z,4.20
2019-03-24T04:01:54.848Z,4.60
2019-03-24T04:04:25.360Z,3.63
2019-03-24T04:06:55.517Z,4.30
2019-03-24T04:09:25.675Z,4.60
2019-03-24T04:11:56.059Z,3.87
2019-03-24T04:14:26.429Z,5.37
2019-03-24T04:17:07.269Z,3.77
2019-03-24T04:19:28.297Z,2.63
2019-03-24T04:21:58.450Z,4.23
2019-03-24T04:24:28.642Z,3.17
2019-03-24T04:26:58.808Z,4.83
2019-03-24T04:29:29.650Z,3.13
2019-03-24T04:32:00.064Z,3.40
2019-03-24T04:34:30.304Z,3.27
2019-03-24T04:37:00.398Z,2.93
2019-03-24T04:39:30.479Z,3.00
2019-03-24T04:42:00.654Z,7.77
2019-03-24T04:44:30.824Z,3.70
2019-03-24T04:47:00.978Z,3.80
2019-03-24T04:49:31.150Z,3.03
2019-03-24T04:52:01.315Z,3.47
2019-03-24T04:54:31.670Z,3.07
2019-03-24T04:57:01.890Z,3.07
2019-03-24T04:59:32.150Z,4.93
2019-03-24T05:02:02.314Z,5.63
2019-03-24T05:04:32.403Z,4.53
2019-03-24T05:07:02.574Z,6.90
2019-03-24T05:09:32.720Z,3.47
2019-03-24T05:12:02.852Z,3.97
2019-03-24T05:14:32.959Z,5.63
2019-03-24T05:17:03.542Z,2.20
2019-03-24T05:19:33.613Z,4.50
2019-03-24T05:22:03.980Z,3.57
2019-03-24T05:24:34.123Z,3.77
2019-03-24T05:27:04.680Z,5.97
2019-03-24T05:29:34.852Z,4.37
2019-03-24T05:32:05.003Z,5.13
2019-03-24T05:34:35.095Z,3.40
2019-03-24T05:37:05.166Z,3.27
2019-03-24T05:39:35.594Z,3.83
2019-03-24T05:42:06.196Z,4.50
2019-03-24T05:44:36.730Z,2.83
2019-03-24T05:47:06.797Z,3.30
2019-03-24T05:49:36.886Z,3.03
2019-03-24T05:52:06.966Z,2.87
2019-03-24T05:54:37.040Z,4.60
2019-03-24T05:57:07.205Z,3.47
2019-03-24T05:59:37.357Z,3.93
2019-03-24T06:02:07.491Z,3.03
2019-03-24T06:04:37.615Z,3.70
2019-03-24T06:07:07.934Z,2.20
2019-03-24T06:09:38.129Z,3.90
2019-03-24T06:12:08.670Z,5.47
2019-03-24T06:14:38.810Z,2.17
2019-03-24T06:17:09.193Z,3.37
2019-03-24T06:19:39.345Z,5.00
2019-03-24T06:22:09.704Z,3.77
2019-03-24T06:24:40.033Z,4.83
2019-03-24T06:27:10.289Z,2.20
2019-03-24T06:29:41.149Z,4.33
2019-03-24T06:32:11.612Z,3.63
2019-03-24T06:34:41.790Z,3.43
2019-03-24T06:37:11.952Z,2.17
2019-03-24T06:39:42.072Z,4.03
2019-03-24T06:42:12.261Z,3.57
2019-03-24T06:44:42.418Z,3.83
2019-03-24T06:47:12.567Z,4.53
2019-03-24T06:50:01.119Z,2.63
2019-03-24T06:52:31.565Z,2.33
2019-03-24T06:55:01.713Z,2.00
2019-03-24T06:57:31.818Z,2.07
2019-03-24T07:00:01.895Z,3.70
2019-03-24T07:02:31.978Z,3.97
2019-03-24T07:05:02.329Z,3.43
2019-03-24T07:07:32.504Z,2.10
2019-03-24T07:10:02.681Z,1.87
2019-03-24T07:12:32.764Z,2.07
2019-03-24T07:15:02.916Z,5.07
2019-03-24T07:17:33.073Z,2.73
2019-03-24T07:20:03.223Z,2.63
2019-03-24T07:22:33.359Z,3.70
2019-03-24T07:25:03.503Z,3.07
2019-03-24T07:27:33.658Z,3.40
2019-03-24T07:30:04.474Z,4.87
2019-03-24T07:32:35.038Z,4.03
2019-03-24T07:35:05.238Z,2.30
2019-03-24T07:37:35.438Z,2.53
2019-03-24T07:40:06.252Z,3.03
2019-03-24T07:42:36.466Z,4.43
2019-03-24T07:45:07.117Z,2.47
2019-03-24T07:47:37.266Z,1.93
2019-03-24T07:50:07.940Z,3.83
2019-03-24T07:52:38.117Z,3.00
2019-03-24T07:55:08.511Z,3.27
2019-03-24T07:57:38.584Z,3.63
2019-03-24T08:00:09.205Z,2.80
2019-03-24T08:02:50.686Z,3.23
2019-03-24T08:05:12.795Z,2.67
2019-03-24T08:07:43.678Z,2.60
2019-03-24T08:10:15.875Z,3.37
2019-03-24T08:12:46.112Z,3.67
2019-03-24T08:15:16.376Z,3.30
2019-03-24T08:17:46.539Z,2.73
2019-03-24T08:20:16.728Z,4.37
2019-03-24T08:22:46.909Z,2.97
2019-03-24T08:25:19.067Z,3.60
2019-03-24T08:27:49.227Z,1.67
2019-03-24T08:30:32.013Z,1.93
2019-03-24T08:33:02.264Z,5.07
2019-03-24T08:35:32.692Z,4.47
2019-03-24T08:38:02.808Z,7.43
2019-03-24T08:40:33.289Z,4.33
2019-03-24T08:43:04.367Z,2.90
2019-03-24T08:45:34.645Z,6.40
2019-03-24T08:48:04.727Z,5.20
2019-03-24T08:50:35.266Z,2.63
2019-03-24T08:53:05.799Z,6.17
2019-03-24T08:55:36.119Z,4.37
2019-03-24T08:58:06.541Z,2.80
2019-03-24T09:00:36.689Z,3.80
2019-03-24T09:03:06.836Z,3.17
2019-03-24T09:05:36.930Z,6.23
2019-03-24T09:08:07.071Z,5.63
2019-03-24T09:10:37.227Z,2.67
2019-03-24T09:13:07.385Z,3.23
2019-03-24T09:15:37.537Z,2.70
2019-03-24T09:18:07.783Z,2.93
2019-03-24T09:20:41.930Z,10.23
2019-03-24T09:23:10.826Z,4.10
2019-03-24T09:25:41.366Z,2.97
2019-03-24T09:28:11.514Z,3.77
2019-03-24T09:30:41.692Z,3.67
2019-03-24T09:33:11.776Z,4.10
2019-03-24T09:35:41.875Z,3.00
2019-03-24T09:38:12.423Z,3.77
2019-03-24T09:40:42.583Z,2.77
2019-03-24T09:43:12.665Z,3.07
2019-03-24T09:45:42.765Z,6.27
2019-03-24T09:48:12.924Z,1.93
2019-03-24T09:50:43.078Z,3.63
2019-03-24T09:53:13.165Z,3.13
2019-03-24T09:55:43.329Z,3.80
2019-03-24T09:58:13.482Z,4.07
2019-03-24T10:00:43.967Z,3.10
2019-03-24T10:03:14.171Z,4.33
2019-03-24T10:05:44.257Z,3.43
2019-03-24T10:08:14.405Z,2.77
2019-03-24T10:10:44.550Z,5.60
2019-03-24T10:13:14.648Z,2.40
2019-03-24T10:15:44.883Z,4.57
2019-03-24T10:18:14.974Z,3.87
2019-03-24T10:20:45.047Z,6.53
2019-03-24T10:23:15.129Z,2.73
2019-03-24T10:25:45.757Z,3.93
2019-03-24T10:28:16.011Z,2.93
2019-03-24T10:30:46.136Z,4.17
2019-03-24T10:33:16.233Z,4.17
2019-03-24T10:35:46.309Z,23.10
2019-03-24T10:38:16.508Z,37.23
2019-03-24T10:40:46.687Z,36.33
2019-03-24T10:43:16.782Z,29.30
2019-03-24T10:45:46.932Z,29.20
2019-03-24T10:48:17.011Z,25.77
2019-03-24T10:50:47.107Z,24.10
2019-03-24T10:53:17.491Z,25.33
2019-03-24T10:55:47.750Z,25.57
2019-03-24T10:58:17.924Z,18.13
2019-03-24T11:00:48.010Z,26.40
2019-03-24T11:03:36.488Z,17.33
2019-03-24T11:06:06.575Z,18.97
2019-03-24T11:08:36.678Z,18.87
2019-03-24T11:11:06.767Z,24.60
2019-03-24T11:13:36.831Z,23.17
2019-03-24T11:16:06.908Z,25.17
2019-03-24T11:18:37.002Z,26.53
2019-03-24T11:21:08.873Z,18.17
2019-03-24T11:23:39.169Z,17.83
2019-03-24T11:26:09.573Z,18.17
2019-03-24T11:28:39.738Z,16.77
2019-03-24T11:31:09.879Z,17.80
2019-03-24T11:33:40.390Z,20.03
2019-03-24T11:36:10.467Z,15.57
2019-03-24T11:38:40.660Z,17.10
2019-03-24T11:41:10.852Z,15.60
2019-03-24T11:43:40.943Z,14.00
2019-03-24T11:46:11.044Z,12.37
2019-03-24T11:48:41.199Z,12.83
2019-03-24T11:51:11.378Z,16.47
2019-03-24T11:53:41.867Z,16.13
2019-03-24T11:56:11.955Z,11.07
2019-03-24T11:58:42.142Z,13.70
2019-03-24T12:01:12.195Z,12.77
2019-03-24T12:03:42.265Z,14.20
2019-03-24T12:06:14.701Z,13.63
2019-03-24T12:08:44.490Z,10.70
2019-03-24T12:11:14.677Z,12.37
2019-03-24T12:13:44.827Z,11.90
2019-03-24T12:16:14.916Z,9.27
2019-03-24T12:18:45.054Z,10.40
2019-03-24T12:21:15.211Z,10.87
2019-03-24T12:23:45.505Z,9.27
2019-03-24T12:26:15.653Z,11.83
2019-03-24T12:28:45.737Z,12.83
2019-03-24T12:31:15.893Z,9.97
2019-03-24T12:33:46.063Z,12.47
2019-03-24T12:36:16.172Z,12.27
2019-03-24T12:38:46.715Z,8.77
2019-03-24T12:41:16.817Z,10.27
2019-03-24T12:43:46.980Z,8.10
2019-03-24T12:46:17.390Z,9.47
2019-03-24T12:48:47.481Z,12.07
2019-03-24T12:51:17.558Z,8.57
2019-03-24T12:53:47.760Z,10.07
2019-03-24T12:56:17.972Z,11.90
2019-03-24T12:58:48.525Z,10.47
2019-03-24T13:01:19.003Z,8.07
2019-03-24T13:03:49.443Z,10.73
2019-03-24T13:06:19.608Z,10.67
2019-03-24T13:08:49.713Z,10.33
2019-03-24T13:11:19.797Z,8.93
2019-03-24T13:13:50.016Z,7.57
2019-03-24T13:16:20.495Z,11.50
2019-03-24T13:18:50.891Z,9.67
2019-03-24T13:21:20.969Z,7.13
2019-03-24T13:23:51.078Z,10.97
2019-03-24T13:26:21.161Z,7.03
2019-03-24T13:28:51.294Z,15.43
2019-03-24T13:31:21.364Z,13.00
2019-03-24T13:33:51.559Z,7.73
2019-03-24T13:36:21.660Z,6.90
2019-03-24T13:38:51.851Z,10.10
2019-03-24T13:41:21.938Z,6.47
2019-03-24T13:43:52.013Z,7.30
2019-03-24T13:46:22.179Z,5.87
2019-03-24T13:48:52.410Z,6.10
2019-03-24T13:51:22.527Z,9.93
2019-03-24T13:53:52.685Z,6.67
2019-03-24T13:56:22.799Z,5.60
2019-03-24T13:58:52.866Z,4.20
2019-03-24T14:01:23.040Z,10.07
2019-03-24T14:03:53.112Z,6.23
2019-03-24T14:06:23.199Z,5.10
2019-03-24T14:08:53.278Z,8.60
2019-03-24T14:11:24.302Z,6.13
2019-03-24T14:13:54.566Z,4.67
2019-03-24T14:16:24.685Z,7.57
2019-03-24T14:18:54.845Z,6.00
2019-03-24T14:21:25.006Z,5.60
2019-03-24T14:23:55.247Z,6.27
2019-03-24T14:26:25.357Z,10.13
2019-03-24T14:28:55.433Z,6.97
2019-03-24T14:31:25.517Z,8.27
2019-03-24T14:33:55.598Z,3.87
2019-03-24T14:36:26.121Z,5.43
2019-03-24T14:38:56.520Z,7.40
2019-03-24T14:41:26.613Z,5.77
2019-03-24T14:43:56.808Z,5.60
2019-03-24T14:46:27.068Z,6.17
2019-03-24T14:48:57.243Z,6.23
2019-03-24T14:51:27.537Z,6.23
2019-03-24T14:53:57.626Z,4.13
2019-03-24T14:56:28.042Z,7.17
2019-03-24T14:58:58.398Z,6.20
2019-03-24T15:01:28.477Z,4.13
2019-03-24T15:03:59.489Z,6.93
2019-03-24T15:06:30.176Z,6.47
2019-03-24T15:09:00.239Z,6.67
2019-03-24T15:11:30.722Z,4.27
2019-03-24T15:14:00.792Z,5.47
2019-03-24T15:16:31.329Z,3.03
2019-03-24T15:19:01.524Z,6.23
2019-03-24T15:21:31.686Z,5.93
2019-03-24T15:24:01.820Z,6.03
2019-03-24T15:26:31.918Z,5.40
2019-03-24T15:29:02.083Z,5.37
2019-03-24T15:31:32.555Z,4.57
2019-03-24T15:34:02.627Z,7.00
2019-03-24T15:36:32.699Z,4.93
2019-03-24T15:39:02.788Z,6.20
2019-03-24T15:41:33.223Z,3.37
2019-03-24T15:44:03.294Z,5.60
2019-03-24T15:46:33.394Z,4.93
2019-03-24T15:49:03.618Z,5.17
2019-03-24T15:51:33.698Z,5.40
2019-03-24T15:54:04.254Z,4.33
2019-03-24T15:56:34.433Z,6.20
2019-03-24T15:59:04.670Z,3.77
2019-03-24T16:01:34.731Z,4.33
2019-03-24T16:04:04.841Z,5.20
2019-03-24T16:06:34.912Z,5.03
2019-03-24T16:09:06.899Z,6.70
2019-03-24T16:11:37.296Z,6.20
2019-03-24T16:14:07.393Z,5.83
2019-03-24T16:16:37.455Z,5.00
2019-03-24T16:19:07.551Z,5.97
2019-03-24T16:21:37.620Z,4.50
2019-03-24T16:24:07.709Z,5.33
2019-03-24T16:26:37.807Z,6.83
2019-03-24T16:29:07.891Z,7.93
2019-03-24T16:31:37.944Z,7.10
2019-03-24T16:34:08.036Z,10.27
2019-03-24T16:36:38.659Z,8.47
2019-03-24T16:39:08.793Z,5.73
2019-03-24T16:41:39.403Z,7.53
2019-03-24T16:44:09.586Z,6.17
2019-03-24T16:46:39.727Z,7.20
2019-03-24T16:49:10.073Z,7.37
2019-03-24T16:51:41.645Z,8.10
2019-03-24T16:54:11.885Z,8.30
2019-03-24T16:56:42.076Z,5.47
2019-03-24T16:59:12.201Z,5.40
2019-03-24T17:01:42.723Z,3.93
2019-03-24T17:04:12.956Z,6.07
2019-03-24T17:06:43.136Z,3.87
2019-03-24T17:09:16.969Z,5.10
2019-03-24T17:11:47.063Z,7.67
2019-03-24T17:14:17.537Z,4.77
2019-03-24T17:16:47.661Z,4.83
2019-03-24T17:19:18.176Z,3.63
2019-03-24T17:21:50.241Z,8.43
2019-03-24T17:24:20.301Z,4.50
2019-03-24T17:26:50.481Z,6.17
2019-03-24T17:29:20.975Z,3.07
2019-03-24T17:31:51.078Z,7.53
2019-03-24T17:34:22.104Z,6.07
2019-03-24T17:36:52.191Z,3.47
2019-03-24T17:39:22.293Z,4.70
2019-03-24T17:41:52.787Z,5.17
2019-03-24T17:44:22.884Z,5.40
2019-03-24T17:46:52.995Z,3.67
2019-03-24T17:49:23.235Z,5.77
2019-03-24T17:52:00.680Z,3.70
2019-03-24T17:54:25.111Z,3.50
2019-03-24T17:56:55.283Z,3.80
2019-03-24T17:59:25.758Z,3.93
2019-03-24T18:01:55.918Z,4.23
2019-03-24T18:04:26.143Z,3.77
2019-03-24T18:06:56.185Z,3.10
2019-03-24T18:09:26.383Z,4.43
2019-03-24T18:11:56.505Z,4.10
2019-03-24T18:14:26.673Z,3.23
2019-03-24T18:16:56.842Z,4.13
2019-03-24T18:19:26.994Z,2.80
2019-03-24T18:21:57.079Z,5.27
2019-03-24T18:24:27.182Z,4.80
2019-03-24T18:26:57.278Z,3.33
2019-03-24T18:29:27.448Z,4.23
2019-03-24T18:31:57.529Z,4.27
2019-03-24T18:34:27.694Z,4.70
2019-03-24T18:36:57.790Z,3.63
2019-03-24T18:39:27.859Z,4.37
2019-03-24T18:41:58.319Z,2.27
2019-03-24T18:44:28.441Z,3.23
2019-03-24T18:46:58.822Z,4.40
2019-03-24T18:49:29.246Z,2.87
2019-03-24T18:51:59.606Z,4.07
2019-03-24T18:54:29.707Z,4.50
2019-03-24T18:56:59.816Z,3.40
2019-03-24T18:59:29.962Z,1.80
2019-03-24T19:02:00.134Z,4.63
2019-03-24T19:04:30.334Z,4.93
2019-03-24T19:07:00.433Z,2.40
2019-03-24T19:09:30.845Z,2.93
2019-03-24T19:12:00.934Z,2.33
2019-03-24T19:14:31.007Z,3.63
2019-03-24T19:17:01.604Z,4.30
2019-03-24T19:19:31.786Z,2.63
2019-03-24T19:22:01.974Z,2.70
2019-03-24T19:24:32.156Z,3.27
2019-03-24T19:27:02.704Z,2.90
2019-03-24T19:29:32.872Z,2.83
2019-03-24T19:32:02.959Z,3.27
2019-03-24T19:34:33.042Z,4.40
2019-03-24T19:37:03.208Z,4.27
2019-03-24T19:39:33.396Z,2.07
2019-03-24T19:42:03.660Z,2.83
2019-03-24T19:44:33.784Z,4.63
2019-03-24T19:47:03.899Z,4.30
2019-03-24T19:49:33.982Z,3.70
2019-03-24T19:52:04.103Z,4.03
2019-03-24T19:54:34.375Z,4.50
2019-03-24T19:57:04.672Z,2.50
2019-03-24T19:59:34.868Z,2.83
2019-03-24T20:02:05.398Z,4.53
2019-03-24T20:04:35.583Z,2.80
2019-03-24T20:07:05.780Z,2.73
2019-03-24T20:09:39.067Z,1.97
2019-03-24T20:12:09.334Z,3.37
2019-03-24T20:14:41.169Z,4.63
2019-03-24T20:17:11.326Z,2.77
2019-03-24T20:19:41.531Z,2.10
2019-03-24T20:22:11.716Z,3.43
2019-03-24T20:24:41.872Z,3.73
2019-03-24T20:27:12.005Z,2.63
2019-03-24T20:29:42.185Z,2.03
2019-03-24T20:32:12.370Z,3.90
2019-03-24T20:34:42.686Z,2.30
2019-03-24T20:37:12.843Z,2.20
2019-03-24T20:39:43.034Z,2.50
2019-03-24T20:42:13.194Z,4.87
2019-03-24T20:44:43.655Z,2.33
2019-03-24T20:47:13.809Z,1.50
2019-03-24T20:49:43.961Z,3.50
2019-03-24T20:52:14.285Z,3.57
2019-03-24T20:54:44.472Z,3.13
2019-03-24T20:57:14.572Z,3.70
2019-03-24T20:59:45.489Z,5.80
2019-03-24T21:02:15.651Z,3.50
2019-03-24T21:04:46.304Z,3.13
2019-03-24T21:07:16.695Z,5.47
2019-03-24T21:09:47.043Z,2.27
2019-03-24T21:12:17.496Z,4.33
2019-03-24T21:14:47.996Z,2.83
2019-03-24T21:17:18.179Z,2.13
2019-03-24T21:19:48.261Z,2.30
2019-03-24T21:22:18.350Z,6.37
2019-03-24T21:24:49.124Z,1.23
2019-03-24T21:27:19.194Z,3.60
2019-03-24T21:29:49.288Z,3.03
2019-03-24T21:32:19.445Z,3.27
2019-03-24T21:34:49.878Z,2.77
2019-03-24T21:37:20.056Z,2.87
2019-03-24T21:39:50.510Z,5.33
2019-03-24T21:42:20.577Z,2.27
2019-03-24T21:44:50.745Z,2.37
2019-03-24T21:47:21.401Z,3.10
2019-03-24T21:49:51.571Z,1.87
2019-03-24T21:52:21.754Z,2.67
2019-03-24T21:54:51.830Z,3.47
2019-03-24T21:57:21.995Z,5.30
2019-03-24T21:59:52.085Z,6.20
2019-03-24T22:02:22.485Z,5.90
2019-03-24T22:04:52.638Z,5.97
2019-03-24T22:07:23.082Z,4.47
2019-03-24T22:09:53.254Z,3.87
2019-03-24T22:12:23.656Z,2.13
2019-03-24T22:14:53.826Z,5.90
2019-03-24T22:17:23.903Z,2.97
2019-03-24T22:19:54.064Z,3.00
2019-03-24T22:22:24.234Z,3.47
2019-03-24T22:24:54.414Z,2.30
2019-03-24T22:27:25.696Z,3.37
2019-03-24T22:29:55.702Z,3.27
2019-03-24T22:32:25.813Z,1.97
2019-03-24T22:34:55.966Z,4.10
2019-03-24T22:37:26.508Z,2.40
2019-03-24T22:39:56.681Z,2.93
2019-03-24T22:42:26.838Z,4.13
2019-03-24T22:44:57.004Z,3.27
2019-03-24T22:47:27.484Z,2.50
2019-03-24T22:49:57.656Z,3.10
2019-03-24T22:52:27.728Z,4.63
2019-03-24T22:54:57.897Z,2.73
2019-03-24T22:57:28.355Z,3.83
2019-03-24T22:59:58.517Z,2.13
2019-03-24T23:02:28.695Z,4.37
2019-03-24T23:04:58.780Z,2.13
2019-03-24T23:07:29.244Z,1.57
2019-03-24T23:09:59.325Z,2.67
2019-03-24T23:12:29.520Z,3.23
2019-03-24T23:14:59.996Z,4.07
2019-03-24T23:17:30.172Z,3.13
2019-03-24T23:20:00.400Z,3.13
2019-03-24T23:22:30.902Z,3.20
2019-03-24T23:25:00.981Z,1.60
2019-03-24T23:27:31.123Z,3.83
2019-03-24T23:30:01.295Z,1.53
2019-03-24T23:32:31.446Z,3.93
2019-03-24T23:35:01.616Z,1.83
2019-03-24T23:37:32.150Z,2.10
2019-03-24T23:40:02.332Z,3.37
2019-03-24T23:42:32.936Z,3.43
2019-03-24T23:45:05.652Z,1.27
2019-03-24T23:47:34.887Z,1.90
2019-03-24T23:50:05.477Z,2.33
2019-03-24T23:52:35.891Z,2.20
2019-03-24T23:55:06.335Z,5.70
2019-03-24T23:57:36.867Z,1.50
